Time;durP1;ratioP1;P1;durP2;ratioP2;P2;SDS_P1;SDS_P2;PMS_P1;PMS_P2;Temp;Humidity;BMP_temperature;BMP_pressure;BME280_temperature;BME280_humidity;BME280_pressure;Samples;Min_cycle;Max_cycle;Signal;HPM_P1;HPM_P2
2020/12/08 00:00:47;;;;;;;1.10;1.10;;;20.10;51.00;;;;;;5058264;28;20481;-70
2020/12/08 00:03:13;;;;;;;1.13;1.10;;;20.10;51.00;;;;;;5057002;28;20983;-70
2020/12/08 00:05:39;;;;;;;1.30;0.90;;;20.10;51.10;;;;;;5061534;28;20570;-70
2020/12/08 00:08:07;;;;;;;1.07;1.07;;;20.10;51.10;;;;;;5069795;28;20481;-71
2020/12/08 00:10:33;;;;;;;1.10;1.10;;;20.10;51.00;;;;;;5070714;28;20480;-70
2020/12/08 00:12:59;;;;;;;0.93;0.90;;;20.10;50.90;;;;;;5068115;28;20489;-71
2020/12/08 00:15:25;;;;;;;1.70;1.17;;;20.10;50.80;;;;;;5070023;28;20542;-70
2020/12/08 00:17:51;;;;;;;1.00;1.00;;;20.10;50.70;;;;;;5070154;28;20537;-69
2020/12/08 00:20:18;;;;;;;1.30;1.20;;;20.10;50.60;;;;;;5061636;28;20488;-70
2020/12/08 00:22:44;;;;;;;1.80;1.30;;;20.10;50.60;;;;;;5062324;28;20963;-70
2020/12/08 00:25:11;;;;;;;1.57;1.40;;;20.10;50.60;;;;;;5071577;28;20482;-69
2020/12/08 00:27:38;;;;;;;2.47;1.40;;;20.10;50.60;;;;;;5069330;28;20580;-70
2020/12/08 00:30:06;;;;;;;0.90;0.90;;;20.10;50.70;;;;;;5043103;28;22346;-69
2020/12/08 00:32:32;;;;;;;0.90;0.90;;;20.10;50.60;;;;;;5036027;28;20486;-69
2020/12/08 00:34:58;;;;;;;0.87;0.87;;;20.10;50.60;;;;;;5047339;28;21039;-69
2020/12/08 00:37:24;;;;;;;1.20;1.20;;;20.10;50.50;;;;;;5047665;28;20478;-67
2020/12/08 00:39:50;;;;;;;0.97;0.97;;;20.00;50.60;;;;;;5047578;28;20528;-69
2020/12/08 00:42:17;;;;;;;0.83;0.83;;;20.00;50.80;;;;;;5048096;28;20834;-69
2020/12/08 00:44:43;;;;;;;1.17;1.17;;;20.00;50.70;;;;;;5047482;28;20486;-71
2020/12/08 00:47:09;;;;;;;1.13;0.90;;;20.00;50.50;;;;;;5046987;28;20474;-69
2020/12/08 00:49:35;;;;;;;1.07;1.07;;;20.10;50.30;;;;;;5046238;28;20486;-70
2020/12/08 00:52:01;;;;;;;1.20;1.20;;;20.10;50.20;;;;;;5039622;28;20558;-69
2020/12/08 00:54:27;;;;;;;1.50;1.50;;;20.10;50.10;;;;;;5069348;28;20847;-68
2020/12/08 00:56:53;;;;;;;0.80;0.80;;;20.10;50.00;;;;;;5048900;28;20481;-68
2020/12/08 00:59:20;;;;;;;1.17;1.17;;;20.10;50.10;;;;;;5045361;28;20482;-69
2020/12/08 01:01:46;;;;;;;1.10;1.10;;;20.20;50.20;;;;;;5051350;28;20551;-69
2020/12/08 01:04:12;;;;;;;1.00;1.00;;;20.10;50.10;;;;;;5046350;28;20481;-69
2020/12/08 01:06:38;;;;;;;4.17;1.10;;;20.10;50.00;;;;;;5047589;28;20914;-69
2020/12/08 01:09:06;;;;;;;0.70;0.70;;;20.10;50.10;;;;;;5047127;28;20568;-70
2020/12/08 01:11:33;;;;;;;1.73;1.00;;;20.10;50.20;;;;;;5037098;28;20490;-70
2020/12/08 01:13:59;;;;;;;0.70;0.70;;;20.10;50.10;;;;;;5047311;28;21085;-70
2020/12/08 01:16:26;;;;;;;1.20;1.20;;;20.10;50.10;;;;;;5041543;28;20582;-70
2020/12/08 01:18:53;;;;;;;1.07;1.07;;;20.00;50.00;;;;;;5047165;28;20535;-71
2020/12/08 01:21:19;;;;;;;1.90;1.57;;;20.00;49.90;;;;;;5047378;28;20485;-70
2020/12/08 01:23:45;;;;;;;1.07;1.07;;;20.00;50.20;;;;;;5048757;28;20486;-72
2020/12/08 01:26:11;;;;;;;0.80;0.80;;;20.00;50.20;;;;;;5045314;28;20478;-70
2020/12/08 01:28:37;;;;;;;1.30;1.30;;;20.00;49.90;;;;;;5041597;28;20513;-70
2020/12/08 01:31:03;;;;;;;1.53;1.43;;;20.10;49.90;;;;;;5037991;28;21182;-69
2020/12/08 01:33:30;;;;;;;1.50;1.27;;;20.10;49.80;;;;;;5045415;28;20499;-68
2020/12/08 01:35:56;;;;;;;1.30;1.20;;;20.10;49.80;;;;;;5046709;28;20539;-69
2020/12/08 01:38:22;;;;;;;1.20;1.20;;;20.10;49.60;;;;;;5049824;28;20482;-69
2020/12/08 01:40:52;;;;;;;1.50;1.50;;;20.10;49.70;;;;;;5048965;28;20547;-69
2020/12/08 01:43:19;;;;;;;1.27;1.27;;;20.10;49.70;;;;;;5044602;28;20551;-69
2020/12/08 01:45:45;;;;;;;1.20;1.20;;;20.10;49.70;;;;;;5046952;28;20485;-70
2020/12/08 01:48:11;;;;;;;1.10;1.10;;;20.10;49.80;;;;;;5047102;28;20516;-70
2020/12/08 01:50:38;;;;;;;1.40;1.27;;;20.00;49.70;;;;;;5048821;28;21136;-69
2020/12/08 01:53:04;;;;;;;1.70;1.70;;;20.10;49.70;;;;;;5051119;28;20490;-72
2020/12/08 01:55:30;;;;;;;1.60;1.50;;;20.10;49.70;;;;;;5051720;28;20481;-68
2020/12/08 01:57:56;;;;;;;1.80;1.70;;;20.10;49.60;;;;;;5052308;28;20490;-67
2020/12/08 02:00:22;;;;;;;1.20;1.20;;;20.10;49.60;;;;;;5047963;28;21029;-71
2020/12/08 02:02:48;;;;;;;1.40;1.30;;;20.10;49.50;;;;;;5049946;28;20543;-70
2020/12/08 02:05:14;;;;;;;1.27;1.27;;;20.10;49.60;;;;;;5067114;28;20538;-68
2020/12/08 02:07:43;;;;;;;2.83;1.00;;;20.00;49.50;;;;;;5070021;28;20558;-70
2020/12/08 02:10:09;;;;;;;1.80;1.67;;;20.10;49.60;;;;;;5073017;28;20537;-69
2020/12/08 02:12:35;;;;;;;1.33;1.33;;;20.00;50.10;;;;;;5072289;28;20566;-70
2020/12/08 02:15:02;;;;;;;2.10;1.27;;;20.00;49.60;;;;;;5074397;28;20477;-69
2020/12/08 02:17:28;;;;;;;1.27;1.27;;;20.00;49.50;;;;;;5058570;28;20521;-69
2020/12/08 02:19:56;;;;;;;1.43;1.40;;;20.00;49.50;;;;;;5051255;28;21174;-69
2020/12/08 02:22:22;;;;;;;1.10;1.10;;;20.00;49.60;;;;;;5053758;28;20515;-70
2020/12/08 02:24:48;;;;;;;1.10;1.10;;;20.00;49.60;;;;;;5050945;28;20530;-68
2020/12/08 02:27:14;;;;;;;1.00;1.00;;;20.00;49.50;;;;;;5049209;28;20474;-69
2020/12/08 02:29:40;;;;;;;1.50;1.50;;;20.00;49.50;;;;;;5049201;28;20588;-69
2020/12/08 02:32:06;;;;;;;1.10;1.10;;;19.90;49.50;;;;;;5041901;28;21669;-70
2020/12/08 02:34:33;;;;;;;1.30;1.30;;;19.90;49.50;;;;;;5048424;28;20478;-68
2020/12/08 02:36:59;;;;;;;1.57;1.57;;;19.90;49.40;;;;;;5051823;28;20483;-69
2020/12/08 02:39:26;;;;;;;1.40;1.40;;;19.90;49.50;;;;;;5053718;28;20509;-70
2020/12/08 02:41:52;;;;;;;1.53;1.43;;;19.90;49.40;;;;;;5041926;28;20483;-70
2020/12/08 02:44:18;;;;;;;1.40;1.30;;;19.90;49.40;;;;;;5052570;28;20566;-69
2020/12/08 02:46:48;;;;;;;1.30;1.30;;;19.90;49.60;;;;;;5055897;28;20481;-70
2020/12/08 02:49:15;;;;;;;1.50;1.10;;;19.90;49.70;;;;;;5051290;28;20900;-70
2020/12/08 02:51:41;;;;;;;1.20;1.20;;;19.90;49.60;;;;;;5049798;28;21124;-70
2020/12/08 02:54:08;;;;;;;1.97;1.87;;;19.90;49.40;;;;;;5048633;28;20647;-70
2020/12/08 02:56:34;;;;;;;1.23;1.23;;;19.90;49.30;;;;;;5048625;28;20486;-70
2020/12/08 02:59:00;;;;;;;1.30;1.30;;;19.90;49.30;;;;;;5048138;28;20498;-69
2020/12/08 03:01:26;;;;;;;1.43;1.43;;;19.90;49.30;;;;;;5048462;28;20490;-69
2020/12/08 03:03:53;;;;;;;1.70;1.60;;;20.00;49.30;;;;;;5051501;28;20920;-69
2020/12/08 03:06:19;;;;;;;1.30;1.30;;;19.90;49.30;;;;;;5049235;28;20490;-68
2020/12/08 03:08:45;;;;;;;1.27;1.10;;;19.90;49.20;;;;;;5051650;28;20474;-70
2020/12/08 03:11:14;;;;;;;1.60;1.60;;;19.90;49.20;;;;;;5051934;28;21067;-70
2020/12/08 03:13:41;;;;;;;1.37;1.37;;;19.90;49.30;;;;;;5050119;28;20571;-72
2020/12/08 03:16:07;;;;;;;1.40;1.40;;;19.90;49.30;;;;;;5051718;28;20551;-69
2020/12/08 03:18:33;;;;;;;1.63;1.53;;;19.90;49.20;;;;;;5048685;28;21081;-69
2020/12/08 03:20:59;;;;;;;1.20;1.00;;;19.90;49.20;;;;;;5036724;28;20499;-69
2020/12/08 03:23:25;;;;;;;1.10;1.10;;;19.90;49.20;;;;;;5040944;28;20485;-72
2020/12/08 03:25:51;;;;;;;1.13;1.13;;;19.90;49.30;;;;;;5050855;28;20477;-69
2020/12/08 03:28:18;;;;;;;1.13;1.13;;;19.90;49.30;;;;;;5047192;28;20474;-70
2020/12/08 03:30:44;;;;;;;1.60;1.60;;;19.90;49.30;;;;;;5050041;28;20482;-69
2020/12/08 03:33:10;;;;;;;1.43;1.43;;;19.90;49.20;;;;;;5040479;28;20919;-69
2020/12/08 03:35:36;;;;;;;1.57;1.47;;;19.80;49.10;;;;;;5054992;28;20490;-70
2020/12/08 03:38:02;;;;;;;1.20;1.20;;;19.90;49.30;;;;;;5048983;28;20502;-70
2020/12/08 03:40:28;;;;;;;1.20;1.20;;;19.80;49.20;;;;;;5066564;28;20478;-70
2020/12/08 03:42:54;;;;;;;1.80;1.70;;;19.90;49.10;;;;;;5053896;28;21587;-71
2020/12/08 03:45:21;;;;;;;2.17;2.07;;;19.90;49.10;;;;;;5054528;28;20475;-70
2020/12/08 03:47:47;;;;;;;1.60;1.60;;;19.90;48.90;;;;;;5050156;28;20482;-68
2020/12/08 03:50:13;;;;;;;2.30;1.60;;;19.90;48.80;;;;;;5048306;28;21060;-70
2020/12/08 03:52:39;;;;;;;1.53;1.43;;;20.00;48.90;;;;;;5051091;28;20472;-69
2020/12/08 03:55:06;;;;;;;1.90;1.80;;;20.00;48.80;;;;;;5053845;28;20551;-69
2020/12/08 03:57:32;;;;;;;1.53;1.43;;;20.00;48.70;;;;;;5056456;28;20485;-69
2020/12/08 03:59:58;;;;;;;1.00;1.00;;;20.00;48.70;;;;;;5040586;28;20493;-70
2020/12/08 04:02:24;;;;;;;1.60;1.50;;;20.10;48.70;;;;;;5047322;28;20490;-69
2020/12/08 04:04:51;;;;;;;1.27;1.27;;;20.10;48.60;;;;;;5044052;28;20503;-68
2020/12/08 04:07:17;;;;;;;1.30;1.30;;;20.00;48.70;;;;;;5054879;28;20550;-69
2020/12/08 04:09:43;;;;;;;1.20;1.20;;;20.00;48.70;;;;;;5047523;28;20470;-71
2020/12/08 04:12:09;;;;;;;1.50;1.40;;;20.00;48.80;;;;;;5051355;28;20993;-70
2020/12/08 04:14:35;;;;;;;1.20;1.20;;;20.00;48.80;;;;;;5049217;28;20543;-70
2020/12/08 04:17:01;;;;;;;1.20;1.20;;;19.90;48.70;;;;;;5047565;28;20537;-71
2020/12/08 04:19:28;;;;;;;1.23;1.23;;;20.00;48.70;;;;;;5046275;28;20477;-70
2020/12/08 04:21:58;;;;;;;2.03;1.70;;;20.00;48.50;;;;;;5042223;28;20550;-68
2020/12/08 04:24:24;;;;;;;1.77;1.50;;;20.00;48.30;;;;;;5041152;28;20519;-67
2020/12/08 04:26:50;;;;;;;1.67;1.60;;;20.10;48.40;;;;;;5046701;28;20485;-70
2020/12/08 04:29:16;;;;;;;1.17;1.17;;;20.10;48.30;;;;;;5040435;28;20905;-70
2020/12/08 04:31:42;;;;;;;1.17;1.17;;;20.10;48.40;;;;;;5046100;28;20482;-70
2020/12/08 04:34:09;;;;;;;1.53;1.43;;;20.10;48.20;;;;;;5048974;28;20482;-70
2020/12/08 04:36:35;;;;;;;1.47;1.47;;;20.20;48.20;;;;;;5050052;28;20478;-71
2020/12/08 04:39:02;;;;;;;1.57;1.47;;;20.20;48.20;;;;;;5050182;28;20536;-69
2020/12/08 04:41:28;;;;;;;2.07;1.97;;;20.20;48.20;;;;;;5050562;28;20540;-70
2020/12/08 04:43:54;;;;;;;1.27;1.27;;;20.20;48.20;;;;;;5050500;28;20486;-69
2020/12/08 04:46:20;;;;;;;1.63;1.63;;;20.10;48.20;;;;;;5046651;28;20563;-69
2020/12/08 04:48:47;;;;;;;1.50;1.50;;;20.10;48.20;;;;;;5049875;28;20535;-70
2020/12/08 04:51:13;;;;;;;1.57;1.47;;;20.10;48.30;;;;;;5047859;28;20539;-71
2020/12/08 04:53:39;;;;;;;1.57;1.33;;;20.10;48.30;;;;;;5048125;28;20540;-69
2020/12/08 04:56:06;;;;;;;1.30;1.30;;;20.10;48.20;;;;;;5047611;28;20540;-70
2020/12/08 04:58:32;;;;;;;1.40;1.33;;;20.10;48.20;;;;;;5044488;28;20477;-70
2020/12/08 05:00:58;;;;;;;1.80;1.70;;;20.10;48.30;;;;;;5037349;28;21021;-71
2020/12/08 05:03:24;;;;;;;1.53;1.43;;;20.00;48.30;;;;;;5049922;28;20508;-70
2020/12/08 05:05:50;;;;;;;2.17;2.07;;;20.00;48.40;;;;;;5050935;28;20485;-70
2020/12/08 05:08:16;;;;;;;1.70;1.60;;;19.90;48.40;;;;;;5053227;28;20469;-69
2020/12/08 05:10:44;;;;;;;1.50;1.50;;;19.90;48.40;;;;;;5069779;28;20548;-70
2020/12/08 05:13:15;;;;;;;1.77;1.67;;;19.90;48.50;;;;;;5067209;28;21650;-70
2020/12/08 05:15:41;;;;;;;1.77;1.70;;;19.90;48.50;;;;;;5067121;28;20582;-70
2020/12/08 05:18:08;;;;;;;1.70;1.67;;;19.90;48.50;;;;;;5069991;28;20930;-69
2020/12/08 05:20:34;;;;;;;1.97;1.87;;;19.90;48.50;;;;;;5071372;28;20485;-69
2020/12/08 05:23:00;;;;;;;2.10;2.00;;;19.80;48.40;;;;;;5066382;28;20533;-70
2020/12/08 05:25:27;;;;;;;1.30;1.30;;;19.80;48.50;;;;;;5070805;28;20477;-70
2020/12/08 05:27:55;;;;;;;1.13;1.13;;;19.80;48.50;;;;;;5073956;28;20476;-72
2020/12/08 05:30:21;;;;;;;1.50;1.40;;;19.80;48.50;;;;;;5074657;28;20489;-70
2020/12/08 05:32:47;;;;;;;1.50;1.50;;;19.90;48.60;;;;;;5075717;28;20898;-69
2020/12/08 05:35:14;;;;;;;1.60;1.50;;;19.90;48.50;;;;;;5070589;28;20480;-70
2020/12/08 05:37:41;;;;;;;1.57;1.47;;;19.80;48.30;;;;;;5076259;28;20637;-71
2020/12/08 05:40:08;;;;;;;1.57;1.50;;;19.80;48.20;;;;;;5070376;28;20489;-69
2020/12/08 05:42:34;;;;;;;1.87;1.77;;;19.80;48.30;;;;;;5075335;28;21003;-70
2020/12/08 05:45:01;;;;;;;1.73;1.70;;;19.90;48.30;;;;;;5075328;28;20491;-71
2020/12/08 05:47:27;;;;;;;1.90;1.80;;;19.80;48.20;;;;;;5072241;28;20484;-69
2020/12/08 05:50:00;;;;;;;2.10;2.00;;;19.80;48.30;;;;;;5059862;28;20478;-69
2020/12/08 05:52:31;;;;;;;1.80;1.70;;;19.80;48.20;;;;;;5052456;28;20481;-69
2020/12/08 05:55:10;;;;;;;2.00;1.90;;;19.80;48.10;;;;;;5054259;28;20871;-71
2020/12/08 05:57:36;;;;;;;1.50;1.50;;;19.80;47.80;;;;;;5053740;28;20562;-72
2020/12/08 06:00:04;;;;;;;1.50;1.40;;;19.90;47.90;;;;;;5050060;28;20478;-68
2020/12/08 06:02:30;;;;;;;1.90;1.80;;;19.90;47.90;;;;;;5039478;28;20475;-71
2020/12/08 06:04:56;;;;;;;2.07;1.97;;;19.90;47.80;;;;;;5050800;28;20551;-69
2020/12/08 06:07:29;;;;;;;1.97;1.77;;;19.90;48.00;;;;;;5052342;28;21073;-69
2020/12/08 06:10:05;;;;;;;3.10;2.00;;;19.90;47.70;;;;;;5054425;28;21146;-71
2020/12/08 06:12:31;;;;;;;2.00;1.90;;;19.90;47.50;;;;;;5052711;28;20481;-69
2020/12/08 06:14:58;;;;;;;2.00;1.90;;;19.90;47.30;;;;;;5049373;28;20558;-70
2020/12/08 06:17:25;;;;;;;2.80;2.30;;;19.90;47.00;;;;;;5050137;28;20485;-69
2020/12/08 06:19:51;;;;;;;2.63;2.43;;;19.90;46.80;;;;;;5043026;28;20554;-71
2020/12/08 06:22:18;;;;;;;2.50;2.37;;;19.90;47.40;;;;;;5071481;28;20489;-72
2020/12/08 06:24:51;;;;;;;3.20;2.20;;;20.00;47.10;;;;;;5062790;28;20477;-68
2020/12/08 06:27:18;;;;;;;2.30;2.20;;;20.00;46.60;;;;;;5061970;28;20944;-69
2020/12/08 06:29:52;;;;;;;2.20;2.10;;;20.00;46.70;;;;;;5063484;28;20972;-69
2020/12/08 06:32:28;;;;;;;4.10;1.77;;;20.10;46.70;;;;;;5056294;28;20607;-69
2020/12/08 06:35:05;;;;;;;2.00;1.90;;;20.00;46.70;;;;;;5068411;28;20480;-70
2020/12/08 06:37:31;;;;;;;1.87;1.87;;;20.10;47.00;;;;;;5068645;28;20485;-70
2020/12/08 06:40:06;;;;;;;1.43;1.43;;;20.10;47.10;;;;;;5070757;28;20585;-68
2020/12/08 06:42:32;;;;;;;1.63;1.60;;;20.10;47.30;;;;;;5072062;28;20480;-69
2020/12/08 06:45:14;;;;;;;1.50;1.40;;;20.10;47.30;;;;;;5067487;28;20555;-69
2020/12/08 06:47:41;;;;;;;1.97;1.87;;;20.10;47.40;;;;;;5071040;28;20529;-71
2020/12/08 06:50:20;;;;;;;1.80;1.80;;;20.20;47.50;;;;;;5069897;28;20482;-71
2020/12/08 06:52:50;;;;;;;2.40;2.30;;;20.20;47.50;;;;;;5061177;28;21055;-70
2020/12/08 06:55:16;;;;;;;1.50;1.50;;;20.20;47.50;;;;;;5071257;28;20469;-68
2020/12/08 06:57:42;;;;;;;1.70;1.60;;;20.20;47.60;;;;;;5067656;28;20469;-70
2020/12/08 07:00:09;;;;;;;1.73;1.47;;;20.20;47.60;;;;;;5068119;28;20486;-70
2020/12/08 07:02:48;;;;;;;1.67;1.57;;;20.20;47.50;;;;;;5070875;28;20530;-69
2020/12/08 07:05:14;;;;;;;1.50;1.50;;;20.20;47.60;;;;;;5071034;27;20670;-69
2020/12/08 07:07:42;;;;;;;1.50;1.50;;;20.20;47.60;;;;;;5072669;28;20529;-71
2020/12/08 07:10:08;;;;;;;1.90;1.80;;;20.20;47.60;;;;;;5070801;28;20493;-69
2020/12/08 07:12:43;;;;;;;2.00;1.90;;;20.20;47.60;;;;;;5071149;28;20902;-69
2020/12/08 07:15:12;;;;;;;2.20;1.73;;;20.10;47.60;;;;;;5082781;28;20551;-72
2020/12/08 07:17:38;;;;;;;1.90;1.80;;;20.10;47.70;;;;;;5084204;28;21222;-71
2020/12/08 07:20:05;;;;;;;1.73;1.63;;;20.10;47.90;;;;;;5077826;28;20485;-70
2020/12/08 07:22:45;;;;;;;1.80;1.70;;;20.00;48.00;;;;;;5075338;28;20492;-68
2020/12/08 07:25:12;;;;;;;2.20;2.10;;;20.00;49.00;;;;;;5073490;28;20488;-68
2020/12/08 07:27:41;;;;;;;1.77;1.67;;;19.90;48.20;;;;;;5070720;28;20489;-69
2020/12/08 07:30:07;;;;;;;2.20;2.10;;;19.90;48.30;;;;;;5072104;28;20492;-68
2020/12/08 07:32:33;;;;;;;1.87;1.77;;;19.90;48.40;;;;;;5060940;28;21052;-68
2020/12/08 07:34:59;;;;;;;1.40;1.33;;;19.90;48.50;;;;;;5049019;28;21227;-70
2020/12/08 07:37:26;;;;;;;1.63;1.57;;;19.90;48.40;;;;;;5047309;28;20555;-71
2020/12/08 07:39:52;;;;;;;1.97;1.87;;;19.90;48.50;;;;;;5050081;28;20551;-70
2020/12/08 07:42:18;;;;;;;1.60;1.50;;;19.80;48.50;;;;;;5053034;28;20489;-70
2020/12/08 07:44:55;;;;;;;1.97;1.87;;;19.80;48.50;;;;;;5049747;28;20485;-69
2020/12/08 07:47:21;;;;;;;2.17;2.07;;;19.90;48.70;;;;;;5034578;28;20479;-69
2020/12/08 07:49:47;;;;;;;1.90;1.80;;;19.90;48.70;;;;;;5055775;28;20527;-69
2020/12/08 07:52:13;;;;;;;1.40;1.40;;;19.80;48.70;;;;;;5050265;28;22347;-68
2020/12/08 07:54:40;;;;;;;1.50;1.50;;;19.90;48.70;;;;;;5037506;28;20485;-70
2020/12/08 07:57:06;;;;;;;1.80;1.73;;;19.90;48.60;;;;;;5045325;28;20499;-71
2020/12/08 07:59:32;;;;;;;1.67;1.57;;;19.90;48.50;;;;;;5051842;28;21104;-69
2020/12/08 08:01:58;;;;;;;1.53;1.53;;;20.00;48.50;;;;;;5050515;28;20731;-68
2020/12/08 08:04:24;;;;;;;1.70;1.60;;;20.00;48.50;;;;;;5048688;28;20489;-70
2020/12/08 08:06:50;;;;;;;2.00;1.90;;;20.00;48.40;;;;;;5052528;28;20489;-69
2020/12/08 08:09:16;;;;;;;1.50;1.43;;;20.00;48.40;;;;;;5050185;28;20480;-69
2020/12/08 08:11:43;;;;;;;1.77;1.77;;;20.00;48.30;;;;;;5051628;28;20492;-68
2020/12/08 08:14:09;;;;;;;3.37;1.83;;;20.00;48.40;;;;;;5048186;28;20482;-68
2020/12/08 08:16:36;;;;;;;1.70;1.60;;;20.00;48.40;;;;;;5047600;28;20986;-70
2020/12/08 08:19:02;;;;;;;1.90;1.80;;;19.90;48.40;;;;;;5047519;28;20506;-69
2020/12/08 08:21:28;;;;;;;1.63;1.53;;;19.90;48.50;;;;;;5045388;28;20482;-69
2020/12/08 08:23:57;;;;;;;1.80;1.70;;;19.90;48.60;;;;;;5048789;28;20493;-69
2020/12/08 08:26:23;;;;;;;1.73;1.63;;;19.80;48.80;;;;;;5039343;28;20576;-67
2020/12/08 08:28:50;;;;;;;1.53;1.50;;;19.80;48.90;;;;;;5047447;28;20488;-69
2020/12/08 08:31:16;;;;;;;1.80;1.70;;;19.80;48.90;;;;;;5047426;28;20492;-69
2020/12/08 08:33:43;;;;;;;5.13;2.93;;;19.80;48.80;;;;;;5050967;28;20479;-69
2020/12/08 08:36:09;;;;;;;1.70;1.60;;;19.90;48.80;;;;;;5038965;28;21026;-69
2020/12/08 08:38:35;;;;;;;1.53;1.53;;;19.90;48.80;;;;;;5047087;28;20473;-70
2020/12/08 08:41:01;;;;;;;4.73;1.40;;;19.90;48.80;;;;;;5049087;28;20485;-68
2020/12/08 08:43:27;;;;;;;1.40;1.30;;;19.90;48.80;;;;;;5048550;28;20484;-69
2020/12/08 08:45:55;;;;;;;1.20;1.20;;;19.80;48.70;;;;;;5037116;28;20579;-68
2020/12/08 08:48:21;;;;;;;1.40;1.30;;;19.90;48.80;;;;;;5045932;28;20484;-70
2020/12/08 08:50:47;;;;;;;1.70;1.70;;;19.80;48.80;;;;;;5058307;28;20477;-68
2020/12/08 08:53:13;;;;;;;1.33;1.30;;;19.80;48.90;;;;;;5062880;28;20501;-71
2020/12/08 08:55:39;;;;;;;2.77;1.50;;;19.80;49.10;;;;;;5048259;28;20486;-70
2020/12/08 08:58:06;;;;;;;1.53;1.47;;;19.70;49.10;;;;;;5046081;28;20486;-70
2020/12/08 09:00:32;;;;;;;1.77;1.67;;;19.70;49.10;;;;;;5050939;28;20490;-68
2020/12/08 09:02:59;;;;;;;1.67;1.57;;;19.70;49.20;;;;;;5053283;28;20496;-71
2020/12/08 09:05:25;;;;;;;1.60;1.50;;;19.70;49.20;;;;;;5050007;28;20477;-71
2020/12/08 09:07:52;;;;;;;2.20;2.10;;;19.70;49.30;;;;;;5051428;28;20504;-69
2020/12/08 09:10:18;;;;;;;1.33;1.33;;;19.70;49.40;;;;;;5038910;28;20481;-67
2020/12/08 09:12:44;;;;;;;1.67;1.50;;;19.70;49.30;;;;;;5051002;28;20484;-68
2020/12/08 09:15:10;;;;;;;2.40;1.40;;;19.80;49.30;;;;;;5052934;28;20497;-68
2020/12/08 09:17:37;;;;;;;2.03;1.93;;;19.80;49.20;;;;;;5050522;28;20557;-69
2020/12/08 09:20:04;;;;;;;1.57;1.50;;;19.90;49.00;;;;;;5049325;28;20489;-68
2020/12/08 09:22:30;;;;;;;1.80;1.70;;;20.00;48.80;;;;;;5049564;28;21128;-70
2020/12/08 09:24:56;;;;;;;2.33;2.23;;;20.00;48.70;;;;;;5053097;28;20859;-69
2020/12/08 09:27:22;;;;;;;1.53;1.50;;;20.10;48.70;;;;;;5051607;28;20494;-69
2020/12/08 09:29:49;;;;;;;1.70;1.60;;;20.10;48.50;;;;;;5050765;28;20477;-70
2020/12/08 09:32:15;;;;;;;1.20;1.20;;;20.20;48.50;;;;;;5054176;28;20488;-70
2020/12/08 09:34:41;;;;;;;1.80;1.70;;;20.20;48.40;;;;;;5054904;28;20489;-69
2020/12/08 09:37:08;;;;;;;1.23;1.23;;;20.20;48.50;;;;;;5049913;28;20491;-68
2020/12/08 09:39:36;;;;;;;1.93;1.83;;;20.20;48.50;;;;;;5055091;28;20477;-69
2020/12/08 09:42:02;;;;;;;1.63;1.53;;;20.30;48.50;;;;;;5041483;28;20490;-69
2020/12/08 09:44:28;;;;;;;1.30;1.20;;;20.30;48.50;;;;;;5052004;28;20485;-68
2020/12/08 09:46:55;;;;;;;1.67;1.57;;;20.30;48.50;;;;;;5049928;28;20477;-69
2020/12/08 09:49:21;;;;;;;1.67;1.67;;;20.20;48.50;;;;;;5039134;28;20483;-69
2020/12/08 09:51:47;;;;;;;1.60;1.50;;;20.20;48.60;;;;;;5057341;28;20485;-68
2020/12/08 09:54:14;;;;;;;1.23;1.23;;;20.20;48.70;;;;;;5052886;28;20489;-68
2020/12/08 09:56:44;;;;;;;1.70;1.63;;;20.20;48.70;;;;;;5041251;28;20473;-70
2020/12/08 09:59:10;;;;;;;1.10;1.10;;;20.20;49.60;;;;;;5053188;28;20482;-70
2020/12/08 10:01:36;;;;;;;2.20;2.10;;;20.10;48.70;;;;;;5054641;28;20564;-69
2020/12/08 10:04:03;;;;;;;1.83;1.73;;;20.10;48.80;;;;;;5047210;28;20497;-70
2020/12/08 10:06:29;;;;;;;1.90;1.80;;;20.10;48.80;;;;;;5048809;28;21013;-70
2020/12/08 10:08:56;;;;;;;1.30;1.20;;;20.10;48.70;;;;;;5050687;28;21047;-68
2020/12/08 10:11:23;;;;;;;1.50;1.50;;;20.10;48.90;;;;;;5051469;28;20513;-69
2020/12/08 10:13:50;;;;;;;1.80;1.70;;;20.10;48.80;;;;;;5051001;28;20564;-69
2020/12/08 10:16:18;;;;;;;1.30;1.30;;;20.10;48.90;;;;;;5048941;28;20577;-69
2020/12/08 10:18:44;;;;;;;1.43;1.43;;;20.10;48.90;;;;;;5051331;28;20990;-69
2020/12/08 10:21:10;;;;;;;1.27;1.17;;;20.10;48.80;;;;;;5047722;28;20498;-69
2020/12/08 10:23:36;;;;;;;1.77;1.70;;;20.10;48.80;;;;;;5050638;28;20482;-69
2020/12/08 10:26:03;;;;;;;1.60;1.50;;;20.10;48.80;;;;;;5050653;28;20489;-69
2020/12/08 10:28:30;;;;;;;1.43;1.33;;;20.10;48.80;;;;;;5051525;28;20894;-70
2020/12/08 10:30:56;;;;;;;1.57;1.47;;;20.10;49.00;;;;;;5051922;28;20489;-69
2020/12/08 10:33:22;;;;;;;1.60;1.50;;;20.10;48.80;;;;;;5040792;28;20494;-68
2020/12/08 10:35:48;;;;;;;1.60;1.60;;;20.20;48.80;;;;;;5068083;28;20476;-72
2020/12/08 10:38:14;;;;;;;1.57;1.57;;;20.20;48.70;;;;;;5075436;28;20530;-70
2020/12/08 10:40:40;;;;;;;1.60;1.43;;;20.10;48.60;;;;;;5104608;28;20489;-70
2020/12/08 10:43:06;;;;;;;2.60;2.17;;;20.10;48.40;;;;;;5084217;28;20608;-71
2020/12/08 10:45:33;;;;;;;2.07;1.97;;;20.10;48.00;;;;;;5100097;27;20507;-70
2020/12/08 10:47:59;;;;;;;2.20;2.10;;;20.10;48.00;;;;;;5080564;28;20481;-70
2020/12/08 10:50:26;;;;;;;2.03;1.93;;;20.10;48.00;;;;;;5076433;28;20492;-70
2020/12/08 10:52:52;;;;;;;1.87;1.87;;;20.10;48.10;;;;;;5073372;28;20484;-70
2020/12/08 10:55:18;;;;;;;1.50;1.50;;;20.10;47.90;;;;;;5075478;28;20480;-70
2020/12/08 10:57:44;;;;;;;1.60;1.50;;;20.10;47.90;;;;;;5072474;28;21652;-69
2020/12/08 11:00:10;;;;;;;1.83;1.67;;;20.10;48.00;;;;;;5074841;28;20572;-70
2020/12/08 11:02:37;;;;;;;1.53;1.53;;;20.10;48.10;;;;;;5073738;28;20488;-69
2020/12/08 11:05:07;;;;;;;2.40;1.60;;;20.10;48.20;;;;;;5076488;28;20472;-69
2020/12/08 11:07:33;;;;;;;1.50;1.40;;;20.10;48.20;;;;;;5076813;28;20485;-70
2020/12/08 11:09:59;;;;;;;1.83;1.73;;;20.10;48.20;;;;;;5072901;28;20488;-70
2020/12/08 11:12:25;;;;;;;1.80;1.70;;;20.10;48.20;;;;;;5064467;28;20473;-70
2020/12/08 11:14:52;;;;;;;1.53;1.43;;;20.10;48.20;;;;;;5073276;28;21118;-70
2020/12/08 11:17:18;;;;;;;1.70;1.60;;;20.10;48.30;;;;;;5073369;28;20562;-69
2020/12/08 11:19:45;;;;;;;2.10;1.90;;;20.10;48.50;;;;;;5074958;28;20472;-70
2020/12/08 11:22:11;;;;;;;1.50;1.40;;;20.10;48.40;;;;;;5071461;28;20482;-70
2020/12/08 11:24:38;;;;;;;1.80;1.70;;;20.10;48.60;;;;;;5072774;28;20477;-68
2020/12/08 11:27:04;;;;;;;1.47;1.47;;;20.00;48.40;;;;;;5072060;28;20476;-69
2020/12/08 11:29:30;;;;;;;1.30;1.20;;;20.00;48.50;;;;;;5072066;28;20478;-70
2020/12/08 11:31:56;;;;;;;1.70;1.70;;;20.00;48.60;;;;;;5069440;28;21028;-69
2020/12/08 11:34:22;;;;;;;1.50;1.40;;;20.00;48.60;;;;;;5073333;28;21197;-68
2020/12/08 11:36:55;;;;;;;1.60;1.60;;;20.00;48.70;;;;;;5077719;28;20559;-69
2020/12/08 11:39:21;;;;;;;3.83;1.90;;;20.00;48.60;;;;;;5066189;28;20489;-71
2020/12/08 11:41:47;;;;;;;1.60;1.50;;;19.90;48.60;;;;;;5071254;28;20481;-69
2020/12/08 11:44:13;;;;;;;1.43;1.30;;;19.90;48.80;;;;;;5072680;28;20486;-70
2020/12/08 11:46:39;;;;;;;1.60;1.40;;;20.00;48.90;;;;;;5073488;28;20476;-69
2020/12/08 11:49:06;;;;;;;1.70;1.60;;;19.90;48.80;;;;;;5070829;28;20497;-72
2020/12/08 11:51:32;;;;;;;1.53;1.23;;;19.90;48.80;;;;;;5073225;28;20484;-70
2020/12/08 11:53:59;;;;;;;1.40;1.40;;;19.90;48.80;;;;;;5070875;28;21813;-71
2020/12/08 11:56:25;;;;;;;1.60;1.60;;;20.00;48.90;;;;;;5072335;28;21115;-71
2020/12/08 11:58:51;;;;;;;1.83;1.73;;;19.90;49.00;;;;;;5070608;28;20898;-70
2020/12/08 12:01:17;;;;;;;1.70;1.70;;;19.90;49.00;;;;;;5072018;28;20480;-69
2020/12/08 12:03:44;;;;;;;2.23;1.70;;;19.90;48.90;;;;;;5072537;28;20480;-69
2020/12/08 12:06:12;;;;;;;1.60;1.53;;;19.90;48.90;;;;;;5070405;28;20482;-68
2020/12/08 12:08:39;;;;;;;1.53;1.43;;;19.90;48.90;;;;;;5071048;28;20564;-68
2020/12/08 12:11:06;;;;;;;1.30;1.30;;;19.90;48.90;;;;;;5073151;28;20486;-71
2020/12/08 12:13:33;;;;;;;1.37;1.30;;;20.00;48.90;;;;;;5072426;28;20488;-68
2020/12/08 12:15:59;;;;;;;1.77;1.67;;;20.00;48.80;;;;;;5072311;28;20476;-69
2020/12/08 12:18:25;;;;;;;1.43;1.43;;;19.90;48.80;;;;;;5068478;28;21068;-69
2020/12/08 12:20:51;;;;;;;1.90;1.80;;;19.90;48.90;;;;;;5072020;28;20473;-69
2020/12/08 12:23:17;;;;;;;1.50;1.40;;;19.90;48.90;;;;;;5072009;28;20473;-69
2020/12/08 12:25:43;;;;;;;1.10;1.10;;;19.90;49.00;;;;;;5069542;28;20477;-68
2020/12/08 12:28:10;;;;;;;1.60;1.33;;;19.80;49.00;;;;;;5070075;28;21422;-68
2020/12/08 12:30:36;;;;;;;1.70;1.60;;;19.80;49.10;;;;;;5072230;28;20845;-69
2020/12/08 12:33:03;;;;;;;1.50;1.50;;;19.90;49.20;;;;;;5070031;28;20538;-70
2020/12/08 12:35:29;;;;;;;1.30;1.30;;;19.80;49.10;;;;;;5061927;28;20477;-70
2020/12/08 12:37:55;;;;;;;1.33;1.33;;;19.80;49.20;;;;;;5071000;28;20481;-71
2020/12/08 12:40:21;;;;;;;1.50;1.40;;;19.80;49.10;;;;;;5072105;28;21098;-71
2020/12/08 12:42:47;;;;;;;2.20;2.10;;;19.80;49.20;;;;;;5072416;28;20526;-70
2020/12/08 12:45:14;;;;;;;1.50;1.40;;;19.80;50.00;;;;;;5071996;28;20482;-69